sensor_id;sensor_type;location;lat;lon;timestamp;P1;durP1;ratioP1;P2;durP2;ratioP2
45338;SDS011;31071;51.478;5.710;2023-07-02T00:00:55;12.88;;;7.20;;
45338;SDS011;31071;51.478;5.710;2023-07-02T00:03:21;14.10;;;7.35;;
45338;SDS011;31071;51.478;5.710;2023-07-02T00:05:47;15.15;;;7.28;;
45338;SDS011;31071;51.478;5.710;2023-07-02T00:08:15;16.85;;;6.93;;
45338;SDS011;31071;51.478;5.710;2023-07-02T00:10:40;15.00;;;7.68;;
45338;SDS011;31071;51.478;5.710;2023-07-02T00:13:06;19.98;;;7.93;;
45338;SDS011;31071;51.478;5.710;2023-07-02T00:15:32;14.05;;;7.50;;
45338;SDS011;31071;51.478;5.710;2023-07-02T00:17:58;15.77;;;7.35;;
45338;SDS011;31071;51.478;5.710;2023-07-02T00:20:23;15.85;;;7.78;;
45338;SDS011;31071;51.478;5.710;2023-07-02T00:22:49;15.75;;;7.97;;
45338;SDS011;31071;51.478;5.710;2023-07-02T00:25:15;19.90;;;7.78;;
45338;SDS011;31071;51.478;5.710;2023-07-02T00:27:41;16.27;;;8.25;;
45338;SDS011;31071;51.478;5.710;2023-07-02T00:30:07;20.67;;;8.80;;
45338;SDS011;31071;51.478;5.710;2023-07-02T00:32:33;18.55;;;8.60;;
45338;SDS011;31071;51.478;5.710;2023-07-02T00:34:58;16.05;;;8.40;;
45338;SDS011;31071;51.478;5.710;2023-07-02T00:37:24;16.35;;;8.32;;
45338;SDS011;31071;51.478;5.710;2023-07-02T00:39:50;18.63;;;9.57;;
45338;SDS011;31071;51.478;5.710;2023-07-02T00:42:15;19.73;;;8.93;;
45338;SDS011;31071;51.478;5.710;2023-07-02T00:44:41;20.80;;;9.20;;
45338;SDS011;31071;51.478;5.710;2023-07-02T00:47:10;19.85;;;9.73;;
45338;SDS011;31071;51.478;5.710;2023-07-02T00:49:37;25.85;;;10.48;;
45338;SDS011;31071;51.478;5.710;2023-07-02T00:52:04;21.45;;;10.95;;
45338;SDS011;31071;51.478;5.710;2023-07-02T00:54:30;19.85;;;10.07;;
45338;SDS011;31071;51.478;5.710;2023-07-02T00:56:56;24.45;;;10.95;;
45338;SDS011;31071;51.478;5.710;2023-07-02T00:59:27;29.27;;;11.20;;
45338;SDS011;31071;51.478;5.710;2023-07-02T01:01:54;21.98;;;10.60;;
45338;SDS011;31071;51.478;5.710;2023-07-02T01:04:21;28.30;;;11.18;;
45338;SDS011;31071;51.478;5.710;2023-07-02T01:06:52;26.17;;;10.80;;
45338;SDS011;31071;51.478;5.710;2023-07-02T01:09:22;23.30;;;11.27;;
45338;SDS011;31071;51.478;5.710;2023-07-02T01:12:02;23.52;;;10.95;;
45338;SDS011;31071;51.478;5.710;2023-07-02T01:14:36;24.90;;;11.35;;
45338;SDS011;31071;51.478;5.710;2023-07-02T01:17:05;26.50;;;11.55;;
45338;SDS011;31071;51.478;5.710;2023-07-02T01:19:46;24.45;;;12.75;;
45338;SDS011;31071;51.478;5.710;2023-07-02T01:22:23;29.40;;;12.57;;
45338;SDS011;31071;51.478;5.710;2023-07-02T01:24:51;24.30;;;11.98;;
45338;SDS011;31071;51.478;5.710;2023-07-02T01:27:17;26.98;;;13.00;;
45338;SDS011;31071;51.478;5.710;2023-07-02T01:29:43;22.85;;;12.60;;
45338;SDS011;31071;51.478;5.710;2023-07-02T01:32:12;26.00;;;12.85;;
45338;SDS011;31071;51.478;5.710;2023-07-02T01:34:38;29.90;;;14.20;;
45338;SDS011;31071;51.478;5.710;2023-07-02T01:37:04;29.25;;;13.15;;
45338;SDS011;31071;51.478;5.710;2023-07-02T01:39:30;34.97;;;13.40;;
45338;SDS011;31071;51.478;5.710;2023-07-02T01:42:06;32.08;;;13.52;;
45338;SDS011;31071;51.478;5.710;2023-07-02T01:44:32;31.17;;;14.55;;
45338;SDS011;31071;51.478;5.710;2023-07-02T01:46:57;31.48;;;13.98;;
45338;SDS011;31071;51.478;5.710;2023-07-02T01:49:23;26.17;;;12.98;;
45338;SDS011;31071;51.478;5.710;2023-07-02T01:51:52;34.25;;;14.30;;
45338;SDS011;31071;51.478;5.710;2023-07-02T01:54:19;30.17;;;14.75;;
45338;SDS011;31071;51.478;5.710;2023-07-02T01:56:45;30.08;;;14.65;;
45338;SDS011;31071;51.478;5.710;2023-07-02T01:59:10;33.50;;;14.63;;
45338;SDS011;31071;51.478;5.710;2023-07-02T02:01:36;29.92;;;14.57;;
45338;SDS011;31071;51.478;5.710;2023-07-02T02:04:06;30.15;;;14.63;;
45338;SDS011;31071;51.478;5.710;2023-07-02T02:06:32;33.58;;;15.57;;
45338;SDS011;31071;51.478;5.710;2023-07-02T02:08:58;31.10;;;15.45;;
45338;SDS011;31071;51.478;5.710;2023-07-02T02:11:23;36.15;;;17.15;;
45338;SDS011;31071;51.478;5.710;2023-07-02T02:13:49;37.53;;;16.15;;
45338;SDS011;31071;51.478;5.710;2023-07-02T02:16:16;35.95;;;15.88;;
45338;SDS011;31071;51.478;5.710;2023-07-02T02:18:42;35.42;;;16.55;;
45338;SDS011;31071;51.478;5.710;2023-07-02T02:21:08;35.45;;;16.38;;
45338;SDS011;31071;51.478;5.710;2023-07-02T02:23:33;36.15;;;16.10;;
45338;SDS011;31071;51.478;5.710;2023-07-02T02:25:59;34.35;;;16.05;;
45338;SDS011;31071;51.478;5.710;2023-07-02T02:28:25;42.13;;;17.05;;
45338;SDS011;31071;51.478;5.710;2023-07-02T02:30:50;36.20;;;16.92;;
45338;SDS011;31071;51.478;5.710;2023-07-02T02:33:16;39.20;;;16.33;;
45338;SDS011;31071;51.478;5.710;2023-07-02T02:35:41;31.45;;;17.00;;
45338;SDS011;31071;51.478;5.710;2023-07-02T02:38:07;36.08;;;16.67;;
45338;SDS011;31071;51.478;5.710;2023-07-02T02:40:33;35.28;;;16.92;;
45338;SDS011;31071;51.478;5.710;2023-07-02T02:42:59;41.20;;;17.55;;
45338;SDS011;31071;51.478;5.710;2023-07-02T02:45:25;39.88;;;16.40;;
45338;SDS011;31071;51.478;5.710;2023-07-02T02:47:50;38.67;;;16.73;;
45338;SDS011;31071;51.478;5.710;2023-07-02T02:50:16;35.83;;;16.98;;
45338;SDS011;31071;51.478;5.710;2023-07-02T02:52:41;34.10;;;17.10;;
45338;SDS011;31071;51.478;5.710;2023-07-02T02:55:08;37.53;;;17.17;;
45338;SDS011;31071;51.478;5.710;2023-07-02T02:57:36;39.25;;;17.23;;
45338;SDS011;31071;51.478;5.710;2023-07-02T03:00:02;37.95;;;17.90;;
45338;SDS011;31071;51.478;5.710;2023-07-02T03:02:27;34.05;;;18.10;;
45338;SDS011;31071;51.478;5.710;2023-07-02T03:04:53;36.78;;;17.98;;
45338;SDS011;31071;51.478;5.710;2023-07-02T03:07:19;42.35;;;18.05;;
45338;SDS011;31071;51.478;5.710;2023-07-02T03:09:45;38.63;;;18.60;;
45338;SDS011;31071;51.478;5.710;2023-07-02T03:12:10;39.78;;;18.75;;
45338;SDS011;31071;51.478;5.710;2023-07-02T03:14:36;38.72;;;18.50;;
45338;SDS011;31071;51.478;5.710;2023-07-02T03:17:02;37.20;;;17.73;;
45338;SDS011;31071;51.478;5.710;2023-07-02T03:19:28;38.63;;;17.95;;
45338;SDS011;31071;51.478;5.710;2023-07-02T03:21:53;37.58;;;17.30;;
45338;SDS011;31071;51.478;5.710;2023-07-02T03:24:19;44.15;;;17.85;;
45338;SDS011;31071;51.478;5.710;2023-07-02T03:26:44;42.42;;;16.88;;
45338;SDS011;31071;51.478;5.710;2023-07-02T03:29:10;36.85;;;18.83;;
45338;SDS011;31071;51.478;5.710;2023-07-02T03:31:36;42.20;;;18.25;;
45338;SDS011;31071;51.478;5.710;2023-07-02T03:34:03;41.67;;;18.33;;
45338;SDS011;31071;51.478;5.710;2023-07-02T03:36:31;36.60;;;18.52;;
45338;SDS011;31071;51.478;5.710;2023-07-02T03:38:56;42.08;;;19.20;;
45338;SDS011;31071;51.478;5.710;2023-07-02T03:41:22;33.35;;;17.95;;
45338;SDS011;31071;51.478;5.710;2023-07-02T03:43:48;41.42;;;18.35;;
45338;SDS011;31071;51.478;5.710;2023-07-02T03:46:13;39.08;;;18.42;;
45338;SDS011;31071;51.478;5.710;2023-07-02T03:48:39;36.15;;;18.00;;
45338;SDS011;31071;51.478;5.710;2023-07-02T03:51:05;32.47;;;17.17;;
45338;SDS011;31071;51.478;5.710;2023-07-02T03:53:31;36.05;;;16.95;;
45338;SDS011;31071;51.478;5.710;2023-07-02T03:55:57;36.10;;;16.80;;
45338;SDS011;31071;51.478;5.710;2023-07-02T03:58:22;38.22;;;16.90;;
45338;SDS011;31071;51.478;5.710;2023-07-02T04:00:48;33.10;;;16.52;;
45338;SDS011;31071;51.478;5.710;2023-07-02T04:03:16;37.92;;;16.88;;
45338;SDS011;31071;51.478;5.710;2023-07-02T04:05:43;39.72;;;16.23;;
45338;SDS011;31071;51.478;5.710;2023-07-02T04:08:09;34.22;;;15.65;;
45338;SDS011;31071;51.478;5.710;2023-07-02T04:10:35;32.60;;;14.88;;
45338;SDS011;31071;51.478;5.710;2023-07-02T04:13:00;34.45;;;15.23;;
45338;SDS011;31071;51.478;5.710;2023-07-02T04:15:26;31.50;;;14.25;;
45338;SDS011;31071;51.478;5.710;2023-07-02T04:17:52;31.50;;;14.15;;
45338;SDS011;31071;51.478;5.710;2023-07-02T04:20:18;36.90;;;14.88;;
45338;SDS011;31071;51.478;5.710;2023-07-02T04:22:47;34.53;;;13.98;;
45338;SDS011;31071;51.478;5.710;2023-07-02T04:25:13;28.23;;;13.55;;
45338;SDS011;31071;51.478;5.710;2023-07-02T04:27:40;29.60;;;14.02;;
45338;SDS011;31071;51.478;5.710;2023-07-02T04:30:07;32.55;;;14.02;;
45338;SDS011;31071;51.478;5.710;2023-07-02T04:32:34;30.58;;;13.50;;
45338;SDS011;31071;51.478;5.710;2023-07-02T04:35:00;32.72;;;13.38;;
45338;SDS011;31071;51.478;5.710;2023-07-02T04:37:26;31.65;;;13.43;;
45338;SDS011;31071;51.478;5.710;2023-07-02T04:39:54;27.55;;;12.65;;
45338;SDS011;31071;51.478;5.710;2023-07-02T04:42:19;27.80;;;12.90;;
45338;SDS011;31071;51.478;5.710;2023-07-02T04:44:45;28.83;;;12.25;;
45338;SDS011;31071;51.478;5.710;2023-07-02T04:47:11;27.27;;;11.73;;
45338;SDS011;31071;51.478;5.710;2023-07-02T04:49:37;30.25;;;12.43;;
45338;SDS011;31071;51.478;5.710;2023-07-02T04:52:05;30.40;;;12.75;;
45338;SDS011;31071;51.478;5.710;2023-07-02T04:54:31;33.92;;;13.25;;
45338;SDS011;31071;51.478;5.710;2023-07-02T04:56:57;35.08;;;13.18;;
45338;SDS011;31071;51.478;5.710;2023-07-02T04:59:23;30.23;;;13.05;;
45338;SDS011;31071;51.478;5.710;2023-07-02T05:01:49;29.88;;;13.20;;
45338;SDS011;31071;51.478;5.710;2023-07-02T05:04:15;35.75;;;13.48;;
45338;SDS011;31071;51.478;5.710;2023-07-02T05:06:40;31.48;;;13.25;;
45338;SDS011;31071;51.478;5.710;2023-07-02T05:09:06;30.05;;;12.95;;
45338;SDS011;31071;51.478;5.710;2023-07-02T05:11:32;28.95;;;13.07;;
45338;SDS011;31071;51.478;5.710;2023-07-02T05:13:57;32.15;;;13.07;;
45338;SDS011;31071;51.478;5.710;2023-07-02T05:16:23;26.70;;;12.73;;
45338;SDS011;31071;51.478;5.710;2023-07-02T05:18:48;30.30;;;12.98;;
45338;SDS011;31071;51.478;5.710;2023-07-02T05:21:17;29.65;;;13.15;;
45338;SDS011;31071;51.478;5.710;2023-07-02T05:23:43;28.55;;;13.55;;
45338;SDS011;31071;51.478;5.710;2023-07-02T05:26:09;26.10;;;12.25;;
45338;SDS011;31071;51.478;5.710;2023-07-02T05:28:34;30.55;;;12.68;;
45338;SDS011;31071;51.478;5.710;2023-07-02T05:31:00;25.60;;;12.50;;
45338;SDS011;31071;51.478;5.710;2023-07-02T05:33:25;26.48;;;12.55;;
45338;SDS011;31071;51.478;5.710;2023-07-02T05:35:51;26.75;;;11.70;;
45338;SDS011;31071;51.478;5.710;2023-07-02T05:38:17;26.92;;;11.95;;
45338;SDS011;31071;51.478;5.710;2023-07-02T05:40:44;30.60;;;11.75;;
45338;SDS011;31071;51.478;5.710;2023-07-02T05:43:10;28.33;;;11.07;;
45338;SDS011;31071;51.478;5.710;2023-07-02T05:45:35;26.13;;;11.20;;
45338;SDS011;31071;51.478;5.710;2023-07-02T05:48:01;24.90;;;11.18;;
45338;SDS011;31071;51.478;5.710;2023-07-02T05:50:27;26.83;;;11.00;;
45338;SDS011;31071;51.478;5.710;2023-07-02T05:52:52;24.27;;;9.90;;
45338;SDS011;31071;51.478;5.710;2023-07-02T05:55:18;28.05;;;10.52;;
45338;SDS011;31071;51.478;5.710;2023-07-02T05:57:43;23.17;;;10.20;;
45338;SDS011;31071;51.478;5.710;2023-07-02T06:00:09;29.77;;;11.13;;
45338;SDS011;31071;51.478;5.710;2023-07-02T06:02:35;23.60;;;9.35;;
45338;SDS011;31071;51.478;5.710;2023-07-02T06:05:01;28.55;;;10.07;;
45338;SDS011;31071;51.478;5.710;2023-07-02T06:07:27;21.48;;;9.32;;
45338;SDS011;31071;51.478;5.710;2023-07-02T06:09:53;20.33;;;9.07;;
45338;SDS011;31071;51.478;5.710;2023-07-02T06:12:19;26.08;;;9.43;;
45338;SDS011;31071;51.478;5.710;2023-07-02T06:14:46;27.85;;;10.18;;
45338;SDS011;31071;51.478;5.710;2023-07-02T06:17:11;27.42;;;10.30;;
45338;SDS011;31071;51.478;5.710;2023-07-02T06:19:37;20.55;;;9.07;;
45338;SDS011;31071;51.478;5.710;2023-07-02T06:22:03;27.67;;;9.60;;
45338;SDS011;31071;51.478;5.710;2023-07-02T06:24:29;23.33;;;9.48;;
45338;SDS011;31071;51.478;5.710;2023-07-02T06:26:55;22.00;;;9.35;;
45338;SDS011;31071;51.478;5.710;2023-07-02T06:29:22;25.52;;;9.85;;
45338;SDS011;31071;51.478;5.710;2023-07-02T06:31:48;23.92;;;9.52;;
45338;SDS011;31071;51.478;5.710;2023-07-02T06:34:14;21.13;;;9.07;;
45338;SDS011;31071;51.478;5.710;2023-07-02T06:36:40;19.67;;;8.80;;
45338;SDS011;31071;51.478;5.710;2023-07-02T06:39:06;20.38;;;8.23;;
45338;SDS011;31071;51.478;5.710;2023-07-02T06:41:31;21.10;;;9.00;;
45338;SDS011;31071;51.478;5.710;2023-07-02T06:43:57;22.17;;;8.20;;
45338;SDS011;31071;51.478;5.710;2023-07-02T06:46:22;25.90;;;8.38;;
45338;SDS011;31071;51.478;5.710;2023-07-02T06:48:48;21.80;;;8.23;;
45338;SDS011;31071;51.478;5.710;2023-07-02T06:51:14;20.25;;;8.20;;
45338;SDS011;31071;51.478;5.710;2023-07-02T06:53:42;17.42;;;8.35;;
45338;SDS011;31071;51.478;5.710;2023-07-02T06:56:09;24.58;;;7.93;;
45338;SDS011;31071;51.478;5.710;2023-07-02T06:58:35;20.75;;;7.95;;
45338;SDS011;31071;51.478;5.710;2023-07-02T07:01:00;17.20;;;7.32;;
45338;SDS011;31071;51.478;5.710;2023-07-02T07:03:26;19.48;;;7.45;;
45338;SDS011;31071;51.478;5.710;2023-07-02T07:05:52;22.38;;;7.97;;
45338;SDS011;31071;51.478;5.710;2023-07-02T07:08:18;23.08;;;7.45;;
45338;SDS011;31071;51.478;5.710;2023-07-02T07:10:43;22.02;;;8.05;;
45338;SDS011;31071;51.478;5.710;2023-07-02T07:13:10;15.77;;;7.75;;
45338;SDS011;31071;51.478;5.710;2023-07-02T07:15:36;21.55;;;7.55;;
45338;SDS011;31071;51.478;5.710;2023-07-02T07:18:02;19.88;;;8.02;;
45338;SDS011;31071;51.478;5.710;2023-07-02T07:20:28;23.30;;;8.68;;
45338;SDS011;31071;51.478;5.710;2023-07-02T07:22:54;17.83;;;7.80;;
45338;SDS011;31071;51.478;5.710;2023-07-02T07:25:20;15.32;;;7.68;;
45338;SDS011;31071;51.478;5.710;2023-07-02T07:27:45;16.05;;;8.02;;
45338;SDS011;31071;51.478;5.710;2023-07-02T07:30:11;19.80;;;7.93;;
45338;SDS011;31071;51.478;5.710;2023-07-02T07:32:37;20.67;;;8.20;;
45338;SDS011;31071;51.478;5.710;2023-07-02T07:35:03;18.77;;;7.15;;
45338;SDS011;31071;51.478;5.710;2023-07-02T07:37:29;16.10;;;7.47;;
45338;SDS011;31071;51.478;5.710;2023-07-02T07:39:54;17.80;;;7.40;;
45338;SDS011;31071;51.478;5.710;2023-07-02T07:42:20;15.77;;;6.75;;
45338;SDS011;31071;51.478;5.710;2023-07-02T07:44:46;18.02;;;6.80;;
45338;SDS011;31071;51.478;5.710;2023-07-02T07:47:11;16.75;;;7.57;;
45338;SDS011;31071;51.478;5.710;2023-07-02T07:49:37;20.40;;;7.28;;
45338;SDS011;31071;51.478;5.710;2023-07-02T07:52:03;18.48;;;7.55;;
45338;SDS011;31071;51.478;5.710;2023-07-02T07:54:31;16.85;;;7.50;;
45338;SDS011;31071;51.478;5.710;2023-07-02T07:56:57;16.90;;;7.65;;
45338;SDS011;31071;51.478;5.710;2023-07-02T07:59:23;16.35;;;7.10;;
45338;SDS011;31071;51.478;5.710;2023-07-02T08:01:48;16.88;;;6.60;;
45338;SDS011;31071;51.478;5.710;2023-07-02T08:04:14;15.10;;;6.60;;
45338;SDS011;31071;51.478;5.710;2023-07-02T08:06:39;16.75;;;6.82;;
45338;SDS011;31071;51.478;5.710;2023-07-02T08:09:05;13.20;;;5.95;;
45338;SDS011;31071;51.478;5.710;2023-07-02T08:11:30;15.30;;;6.45;;
45338;SDS011;31071;51.478;5.710;2023-07-02T08:13:57;12.75;;;5.93;;
45338;SDS011;31071;51.478;5.710;2023-07-02T08:16:22;19.08;;;6.50;;
45338;SDS011;31071;51.478;5.710;2023-07-02T08:18:48;12.88;;;6.65;;
45338;SDS011;31071;51.478;5.710;2023-07-02T08:21:13;16.88;;;7.47;;
45338;SDS011;31071;51.478;5.710;2023-07-02T08:23:39;13.07;;;5.75;;
45338;SDS011;31071;51.478;5.710;2023-07-02T08:26:08;14.02;;;6.68;;
45338;SDS011;31071;51.478;5.710;2023-07-02T08:28:35;12.13;;;6.45;;
45338;SDS011;31071;51.478;5.710;2023-07-02T08:31:03;14.55;;;6.22;;
45338;SDS011;31071;51.478;5.710;2023-07-02T08:33:29;14.63;;;6.15;;
45338;SDS011;31071;51.478;5.710;2023-07-02T08:35:54;11.10;;;5.30;;
45338;SDS011;31071;51.478;5.710;2023-07-02T08:38:20;16.05;;;6.25;;
45338;SDS011;31071;51.478;5.710;2023-07-02T08:40:46;13.52;;;6.65;;
45338;SDS011;31071;51.478;5.710;2023-07-02T08:43:11;12.07;;;5.90;;
45338;SDS011;31071;51.478;5.710;2023-07-02T08:45:37;13.50;;;6.07;;
45338;SDS011;31071;51.478;5.710;2023-07-02T08:48:05;12.25;;;6.10;;
45338;SDS011;31071;51.478;5.710;2023-07-02T08:50:31;13.65;;;5.93;;
45338;SDS011;31071;51.478;5.710;2023-07-02T08:52:56;13.45;;;6.20;;
45338;SDS011;31071;51.478;5.710;2023-07-02T08:55:22;13.68;;;6.15;;
45338;SDS011;31071;51.478;5.710;2023-07-02T08:57:52;14.93;;;5.82;;
45338;SDS011;31071;51.478;5.710;2023-07-02T09:00:19;14.20;;;5.68;;
45338;SDS011;31071;51.478;5.710;2023-07-02T09:02:45;13.30;;;5.95;;
45338;SDS011;31071;51.478;5.710;2023-07-02T09:05:12;12.57;;;5.70;;
45338;SDS011;31071;51.478;5.710;2023-07-02T09:07:48;10.60;;;5.55;;
45338;SDS011;31071;51.478;5.710;2023-07-02T09:10:28;12.90;;;5.50;;
45338;SDS011;31071;51.478;5.710;2023-07-02T09:13:03;12.20;;;6.13;;
45338;SDS011;31071;51.478;5.710;2023-07-02T09:15:36;9.55;;;5.57;;
45338;SDS011;31071;51.478;5.710;2023-07-02T09:18:15;14.13;;;5.68;;
45338;SDS011;31071;51.478;5.710;2023-07-02T09:20:41;12.07;;;5.82;;
45338;SDS011;31071;51.478;5.710;2023-07-02T09:23:07;14.35;;;6.75;;
45338;SDS011;31071;51.478;5.710;2023-07-02T09:25:33;15.18;;;6.30;;
45338;SDS011;31071;51.478;5.710;2023-07-02T09:28:01;11.95;;;6.15;;
45338;SDS011;31071;51.478;5.710;2023-07-02T09:30:27;11.18;;;5.82;;
45338;SDS011;31071;51.478;5.710;2023-07-02T09:32:53;10.18;;;5.85;;
45338;SDS011;31071;51.478;5.710;2023-07-02T09:35:19;13.52;;;6.55;;
45338;SDS011;31071;51.478;5.710;2023-07-02T09:37:45;12.88;;;5.88;;
45338;SDS011;31071;51.478;5.710;2023-07-02T09:40:11;15.75;;;6.90;;
45338;SDS011;31071;51.478;5.710;2023-07-02T09:42:38;14.25;;;5.65;;
45338;SDS011;31071;51.478;5.710;2023-07-02T09:45:05;14.48;;;6.20;;
45338;SDS011;31071;51.478;5.710;2023-07-02T09:47:33;17.05;;;6.95;;
45338;SDS011;31071;51.478;5.710;2023-07-02T09:50:03;12.95;;;6.10;;
45338;SDS011;31071;51.478;5.710;2023-07-02T09:52:33;13.02;;;5.95;;
45338;SDS011;31071;51.478;5.710;2023-07-02T09:54:59;15.20;;;6.43;;
45338;SDS011;31071;51.478;5.710;2023-07-02T09:57:25;14.77;;;6.32;;
45338;SDS011;31071;51.478;5.710;2023-07-02T09:59:51;13.68;;;6.60;;
45338;SDS011;31071;51.478;5.710;2023-07-02T10:02:17;15.48;;;5.90;;
45338;SDS011;31071;51.478;5.710;2023-07-02T10:04:46;14.02;;;5.95;;
45338;SDS011;31071;51.478;5.710;2023-07-02T10:07:13;15.13;;;5.95;;
45338;SDS011;31071;51.478;5.710;2023-07-02T10:09:50;19.17;;;6.65;;
45338;SDS011;31071;51.478;5.710;2023-07-02T10:12:20;15.35;;;6.55;;
45338;SDS011;31071;51.478;5.710;2023-07-02T10:14:47;14.60;;;6.18;;
45338;SDS011;31071;51.478;5.710;2023-07-02T10:19:55;12.40;;;6.28;;
45338;SDS011;31071;51.478;5.710;2023-07-02T10:22:22;16.55;;;6.45;;
45338;SDS011;31071;51.478;5.710;2023-07-02T10:24:51;14.10;;;5.97;;
45338;SDS011;31071;51.478;5.710;2023-07-02T10:27:32;15.18;;;6.10;;
45338;SDS011;31071;51.478;5.710;2023-07-02T10:30:06;18.55;;;7.13;;
45338;SDS011;31071;51.478;5.710;2023-07-02T10:32:33;14.05;;;6.47;;
45338;SDS011;31071;51.478;5.710;2023-07-02T10:35:01;11.98;;;6.32;;
45338;SDS011;31071;51.478;5.710;2023-07-02T10:37:35;16.50;;;6.45;;
45338;SDS011;31071;51.478;5.710;2023-07-02T10:40:06;15.90;;;6.80;;
45338;SDS011;31071;51.478;5.710;2023-07-02T10:42:32;11.88;;;5.70;;
45338;SDS011;31071;51.478;5.710;2023-07-02T10:44:59;13.38;;;6.15;;
45338;SDS011;31071;51.478;5.710;2023-07-02T10:47:24;14.30;;;6.43;;
45338;SDS011;31071;51.478;5.710;2023-07-02T10:49:50;19.77;;;6.40;;
45338;SDS011;31071;51.478;5.710;2023-07-02T10:52:15;14.05;;;6.35;;
45338;SDS011;31071;51.478;5.710;2023-07-02T10:54:45;18.15;;;6.50;;
45338;SDS011;31071;51.478;5.710;2023-07-02T10:57:15;16.00;;;6.80;;
45338;SDS011;31071;51.478;5.710;2023-07-02T10:59:45;16.83;;;7.10;;
45338;SDS011;31071;51.478;5.710;2023-07-02T11:02:11;15.50;;;6.65;;
45338;SDS011;31071;51.478;5.710;2023-07-02T11:04:36;16.52;;;6.50;;
45338;SDS011;31071;51.478;5.710;2023-07-02T11:07:03;15.93;;;7.07;;
45338;SDS011;31071;51.478;5.710;2023-07-02T11:09:29;19.88;;;7.53;;
45338;SDS011;31071;51.478;5.710;2023-07-02T11:11:55;14.55;;;7.53;;
45338;SDS011;31071;51.478;5.710;2023-07-02T11:14:28;18.08;;;7.90;;
45338;SDS011;31071;51.478;5.710;2023-07-02T11:16:59;17.35;;;6.97;;
45338;SDS011;31071;51.478;5.710;2023-07-02T11:19:28;17.98;;;8.20;;
45338;SDS011;31071;51.478;5.710;2023-07-02T11:21:54;18.52;;;7.80;;
45338;SDS011;31071;51.478;5.710;2023-07-02T11:24:28;18.98;;;8.30;;
45338;SDS011;31071;51.478;5.710;2023-07-02T11:27:04;19.30;;;8.95;;
45338;SDS011;31071;51.478;5.710;2023-07-02T11:29:31;18.27;;;7.95;;
45338;SDS011;31071;51.478;5.710;2023-07-02T11:34:36;18.48;;;8.65;;
45338;SDS011;31071;51.478;5.710;2023-07-02T11:37:03;23.10;;;8.70;;
45338;SDS011;31071;51.478;5.710;2023-07-02T11:39:30;17.38;;;8.32;;
45338;SDS011;31071;51.478;5.710;2023-07-02T11:41:56;17.77;;;8.27;;
45338;SDS011;31071;51.478;5.710;2023-07-02T11:44:22;16.13;;;8.35;;
45338;SDS011;31071;51.478;5.710;2023-07-02T11:46:48;15.77;;;7.88;;
45338;SDS011;31071;51.478;5.710;2023-07-02T11:49:14;15.15;;;7.50;;
45338;SDS011;31071;51.478;5.710;2023-07-02T11:51:40;21.15;;;8.98;;
45338;SDS011;31071;51.478;5.710;2023-07-02T11:54:06;16.52;;;8.68;;
45338;SDS011;31071;51.478;5.710;2023-07-02T11:56:32;20.55;;;8.65;;
45338;SDS011;31071;51.478;5.710;2023-07-02T11:58:58;21.40;;;8.70;;
45338;SDS011;31071;51.478;5.710;2023-07-02T12:01:24;20.48;;;8.73;;
45338;SDS011;31071;51.478;5.710;2023-07-02T12:03:50;21.00;;;8.75;;
45338;SDS011;31071;51.478;5.710;2023-07-02T12:06:16;15.57;;;8.48;;
45338;SDS011;31071;51.478;5.710;2023-07-02T12:08:42;17.88;;;8.18;;
45338;SDS011;31071;51.478;5.710;2023-07-02T12:11:07;21.95;;;8.90;;
45338;SDS011;31071;51.478;5.710;2023-07-02T12:13:33;17.40;;;8.07;;
45338;SDS011;31071;51.478;5.710;2023-07-02T12:15:58;22.80;;;8.65;;
45338;SDS011;31071;51.478;5.710;2023-07-02T12:18:25;25.48;;;8.73;;
45338;SDS011;31071;51.478;5.710;2023-07-02T12:20:50;18.95;;;8.52;;
45338;SDS011;31071;51.478;5.710;2023-07-02T12:23:16;16.13;;;8.52;;
45338;SDS011;31071;51.478;5.710;2023-07-02T12:25:41;18.90;;;8.20;;
45338;SDS011;31071;51.478;5.710;2023-07-02T12:28:07;14.90;;;7.88;;
45338;SDS011;31071;51.478;5.710;2023-07-02T12:30:32;15.35;;;8.15;;
45338;SDS011;31071;51.478;5.710;2023-07-02T12:32:58;16.02;;;8.13;;
45338;SDS011;31071;51.478;5.710;2023-07-02T12:35:24;19.75;;;9.75;;
45338;SDS011;31071;51.478;5.710;2023-07-02T12:37:50;16.33;;;8.02;;
45338;SDS011;31071;51.478;5.710;2023-07-02T12:40:16;21.52;;;9.52;;
45338;SDS011;31071;51.478;5.710;2023-07-02T12:42:43;16.27;;;9.35;;
45338;SDS011;31071;51.478;5.710;2023-07-02T12:45:09;16.35;;;9.10;;
45338;SDS011;31071;51.478;5.710;2023-07-02T12:47:36;15.82;;;8.63;;
45338;SDS011;31071;51.478;5.710;2023-07-02T12:50:03;13.23;;;8.73;;
45338;SDS011;31071;51.478;5.710;2023-07-02T12:52:37;15.57;;;8.77;;
45338;SDS011;31071;51.478;5.710;2023-07-02T12:55:05;18.02;;;8.43;;
45338;SDS011;31071;51.478;5.710;2023-07-02T12:57:31;17.33;;;8.18;;
45338;SDS011;31071;51.478;5.710;2023-07-02T12:59:57;15.32;;;7.80;;
45338;SDS011;31071;51.478;5.710;2023-07-02T13:02:23;17.73;;;7.47;;
45338;SDS011;31071;51.478;5.710;2023-07-02T13:04:49;14.77;;;7.68;;
45338;SDS011;31071;51.478;5.710;2023-07-02T13:07:15;15.88;;;6.90;;
45338;SDS011;31071;51.478;5.710;2023-07-02T13:09:41;12.48;;;6.60;;
45338;SDS011;31071;51.478;5.710;2023-07-02T13:12:07;14.25;;;6.70;;
45338;SDS011;31071;51.478;5.710;2023-07-02T13:14:33;13.20;;;6.43;;
45338;SDS011;31071;51.478;5.710;2023-07-02T13:17:00;14.20;;;5.68;;
45338;SDS011;31071;51.478;5.710;2023-07-02T13:19:28;15.35;;;6.05;;
45338;SDS011;31071;51.478;5.710;2023-07-02T13:21:53;10.43;;;5.70;;
45338;SDS011;31071;51.478;5.710;2023-07-02T13:24:19;14.02;;;5.97;;
45338;SDS011;31071;51.478;5.710;2023-07-02T13:26:45;13.15;;;6.07;;
45338;SDS011;31071;51.478;5.710;2023-07-02T13:29:11;13.70;;;5.97;;
45338;SDS011;31071;51.478;5.710;2023-07-02T13:31:37;15.02;;;6.25;;
45338;SDS011;31071;51.478;5.710;2023-07-02T13:34:03;15.77;;;6.32;;
45338;SDS011;31071;51.478;5.710;2023-07-02T13:36:28;13.90;;;6.30;;
45338;SDS011;31071;51.478;5.710;2023-07-02T13:38:54;11.20;;;5.60;;
45338;SDS011;31071;51.478;5.710;2023-07-02T13:41:21;13.07;;;5.72;;
45338;SDS011;31071;51.478;5.710;2023-07-02T13:43:47;13.07;;;6.05;;
45338;SDS011;31071;51.478;5.710;2023-07-02T13:46:12;13.48;;;6.53;;
45338;SDS011;31071;51.478;5.710;2023-07-02T13:48:38;16.48;;;6.25;;
45338;SDS011;31071;51.478;5.710;2023-07-02T13:51:04;14.90;;;6.45;;
45338;SDS011;31071;51.478;5.710;2023-07-02T13:53:30;15.93;;;6.68;;
45338;SDS011;31071;51.478;5.710;2023-07-02T13:55:55;16.27;;;7.05;;
45338;SDS011;31071;51.478;5.710;2023-07-02T13:58:22;10.45;;;6.32;;
45338;SDS011;31071;51.478;5.710;2023-07-02T14:00:48;10.98;;;5.93;;
45338;SDS011;31071;51.478;5.710;2023-07-02T14:03:13;11.48;;;5.93;;
45338;SDS011;31071;51.478;5.710;2023-07-02T14:05:39;14.32;;;6.55;;
45338;SDS011;31071;51.478;5.710;2023-07-02T14:08:05;10.65;;;6.03;;
45338;SDS011;31071;51.478;5.710;2023-07-02T14:10:30;13.55;;;5.88;;
45338;SDS011;31071;51.478;5.710;2023-07-02T14:12:56;10.35;;;6.10;;
45338;SDS011;31071;51.478;5.710;2023-07-02T14:15:21;14.40;;;6.10;;
45338;SDS011;31071;51.478;5.710;2023-07-02T14:17:49;15.18;;;5.85;;
45338;SDS011;31071;51.478;5.710;2023-07-02T14:20:14;13.45;;;6.32;;
45338;SDS011;31071;51.478;5.710;2023-07-02T14:22:40;12.13;;;6.38;;
45338;SDS011;31071;51.478;5.710;2023-07-02T14:25:05;11.57;;;6.05;;
45338;SDS011;31071;51.478;5.710;2023-07-02T14:27:31;10.27;;;5.28;;
45338;SDS011;31071;51.478;5.710;2023-07-02T14:29:57;13.98;;;6.03;;
45338;SDS011;31071;51.478;5.710;2023-07-02T14:32:22;13.23;;;6.32;;